sensor_id;sensor_type;location;lat;lon;timestamp;temperature;humidity
45906;DHT22;31619;49.008;12.106;2023-03-14T00:01:18;9.80;99.90
45906;DHT22;31619;49.008;12.106;2023-03-14T00:03:47;9.80;99.90
45906;DHT22;31619;49.008;12.106;2023-03-14T00:06:14;9.80;99.90
45906;DHT22;31619;49.008;12.106;2023-03-14T00:08:41;9.70;99.90
45906;DHT22;31619;49.008;12.106;2023-03-14T00:11:12;9.70;99.90
45906;DHT22;31619;49.008;12.106;2023-03-14T00:13:38;9.70;99.90
45906;DHT22;31619;49.008;12.106;2023-03-14T00:16:06;9.70;99.90
45906;DHT22;31619;49.008;12.106;2023-03-14T00:18:33;9.70;99.90
45906;DHT22;31619;49.008;12.106;2023-03-14T00:20:59;9.70;99.90
45906;DHT22;31619;49.008;12.106;2023-03-14T00:23:27;9.70;99.90
45906;DHT22;31619;49.008;12.106;2023-03-14T00:25:52;9.60;99.90
45906;DHT22;31619;49.008;12.106;2023-03-14T00:28:18;9.50;99.90
45906;DHT22;31619;49.008;12.106;2023-03-14T00:30:43;9.40;99.90
45906;DHT22;31619;49.008;12.106;2023-03-14T00:33:09;9.40;99.90
45906;DHT22;31619;49.008;12.106;2023-03-14T00:35:34;9.50;99.90
45906;DHT22;31619;49.008;12.106;2023-03-14T00:38:00;9.70;99.90
45906;DHT22;31619;49.008;12.106;2023-03-14T00:40:26;9.60;99.90
45906;DHT22;31619;49.008;12.106;2023-03-14T00:42:51;9.60;99.90
45906;DHT22;31619;49.008;12.106;2023-03-14T00:45:17;9.60;99.90
45906;DHT22;31619;49.008;12.106;2023-03-14T00:47:42;9.60;99.90
45906;DHT22;31619;49.008;12.106;2023-03-14T00:50:11;9.50;99.90
45906;DHT22;31619;49.008;12.106;2023-03-14T00:52:36;9.60;99.90
45906;DHT22;31619;49.008;12.106;2023-03-14T00:55:02;9.60;99.90
45906;DHT22;31619;49.008;12.106;2023-03-14T00:57:28;9.60;99.90
45906;DHT22;31619;49.008;12.106;2023-03-14T00:59:53;9.60;99.90
45906;DHT22;31619;49.008;12.106;2023-03-14T01:02:19;9.60;99.90
45906;DHT22;31619;49.008;12.106;2023-03-14T01:04:47;9.60;99.90
45906;DHT22;31619;49.008;12.106;2023-03-14T01:07:13;9.50;99.90
45906;DHT22;31619;49.008;12.106;2023-03-14T01:09:38;9.50;99.90
45906;DHT22;31619;49.008;12.106;2023-03-14T01:12:04;9.60;99.90
45906;DHT22;31619;49.008;12.106;2023-03-14T01:14:29;9.50;99.90
45906;DHT22;31619;49.008;12.106;2023-03-14T01:16:55;9.50;99.90
45906;DHT22;31619;49.008;12.106;2023-03-14T01:19:28;9.50;99.90
45906;DHT22;31619;49.008;12.106;2023-03-14T01:21:54;9.70;99.90
45906;DHT22;31619;49.008;12.106;2023-03-14T01:24:20;9.70;99.90
45906;DHT22;31619;49.008;12.106;2023-03-14T01:26:46;9.60;99.90
45906;DHT22;31619;49.008;12.106;2023-03-14T01:29:12;9.70;99.90
45906;DHT22;31619;49.008;12.106;2023-03-14T01:31:37;9.60;99.90
45906;DHT22;31619;49.008;12.106;2023-03-14T01:34:03;9.60;99.90
45906;DHT22;31619;49.008;12.106;2023-03-14T01:36:29;9.70;99.90
45906;DHT22;31619;49.008;12.106;2023-03-14T01:38:54;9.70;99.90
45906;DHT22;31619;49.008;12.106;2023-03-14T01:41:24;9.80;99.90
45906;DHT22;31619;49.008;12.106;2023-03-14T01:43:50;9.80;99.90
45906;DHT22;31619;49.008;12.106;2023-03-14T01:46:32;9.90;99.90
45906;DHT22;31619;49.008;12.106;2023-03-14T01:51:56;9.70;99.90
45906;DHT22;31619;49.008;12.106;2023-03-14T01:54:25;9.70;99.90
45906;DHT22;31619;49.008;12.106;2023-03-14T01:56:57;9.80;99.90
45906;DHT22;31619;49.008;12.106;2023-03-14T01:59:26;9.90;99.90
45906;DHT22;31619;49.008;12.106;2023-03-14T02:01:52;9.80;99.90
45906;DHT22;31619;49.008;12.106;2023-03-14T02:04:19;9.90;99.90
45906;DHT22;31619;49.008;12.106;2023-03-14T02:06:49;9.90;99.90
45906;DHT22;31619;49.008;12.106;2023-03-14T02:09:16;9.80;99.90
45906;DHT22;31619;49.008;12.106;2023-03-14T02:11:42;9.70;99.90
45906;DHT22;31619;49.008;12.106;2023-03-14T02:14:12;9.70;99.90
45906;DHT22;31619;49.008;12.106;2023-03-14T02:16:39;9.70;99.90
45906;DHT22;31619;49.008;12.106;2023-03-14T02:19:05;9.60;99.90
45906;DHT22;31619;49.008;12.106;2023-03-14T02:21:44;9.60;99.90
45906;DHT22;31619;49.008;12.106;2023-03-14T02:24:27;9.60;99.90
45906;DHT22;31619;49.008;12.106;2023-03-14T02:27:05;9.50;99.90
45906;DHT22;31619;49.008;12.106;2023-03-14T02:29:31;9.40;99.90
45906;DHT22;31619;49.008;12.106;2023-03-14T02:31:58;9.30;99.90
45906;DHT22;31619;49.008;12.106;2023-03-14T02:34:25;9.30;99.90
45906;DHT22;31619;49.008;12.106;2023-03-14T02:36:51;9.20;99.90
45906;DHT22;31619;49.008;12.106;2023-03-14T02:39:41;9.20;99.90
45906;DHT22;31619;49.008;12.106;2023-03-14T02:42:08;9.20;99.90
45906;DHT22;31619;49.008;12.106;2023-03-14T02:44:33;9.10;99.90
45906;DHT22;31619;49.008;12.106;2023-03-14T02:47:01;9.10;99.90
45906;DHT22;31619;49.008;12.106;2023-03-14T02:49:29;9.00;99.90
45906;DHT22;31619;49.008;12.106;2023-03-14T02:51:56;9.00;99.90
45906;DHT22;31619;49.008;12.106;2023-03-14T02:54:22;9.00;99.90
45906;DHT22;31619;49.008;12.106;2023-03-14T02:56:47;8.90;99.90
45906;DHT22;31619;49.008;12.106;2023-03-14T02:59:13;8.90;99.90
45906;DHT22;31619;49.008;12.106;2023-03-14T03:01:38;8.90;99.90
45906;DHT22;31619;49.008;12.106;2023-03-14T03:04:04;8.90;99.90
45906;DHT22;31619;49.008;12.106;2023-03-14T03:06:30;8.80;99.90
45906;DHT22;31619;49.008;12.106;2023-03-14T03:08:56;8.90;99.90
45906;DHT22;31619;49.008;12.106;2023-03-14T03:11:21;8.90;99.90
45906;DHT22;31619;49.008;12.106;2023-03-14T03:13:47;8.90;99.90
45906;DHT22;31619;49.008;12.106;2023-03-14T03:16:12;9.00;99.90
45906;DHT22;31619;49.008;12.106;2023-03-14T03:18:41;8.90;99.90
45906;DHT22;31619;49.008;12.106;2023-03-14T03:21:07;8.90;99.90
45906;DHT22;31619;49.008;12.106;2023-03-14T03:23:34;8.90;99.90
45906;DHT22;31619;49.008;12.106;2023-03-14T03:26:00;8.90;99.90
45906;DHT22;31619;49.008;12.106;2023-03-14T03:28:25;8.90;99.90
45906;DHT22;31619;49.008;12.106;2023-03-14T03:30:51;9.00;99.90
45906;DHT22;31619;49.008;12.106;2023-03-14T03:33:17;8.90;99.90
45906;DHT22;31619;49.008;12.106;2023-03-14T03:35:48;9.00;99.90
45906;DHT22;31619;49.008;12.106;2023-03-14T03:38:14;8.90;99.90
45906;DHT22;31619;49.008;12.106;2023-03-14T03:40:40;8.90;99.90
45906;DHT22;31619;49.008;12.106;2023-03-14T03:43:06;8.80;99.90
45906;DHT22;31619;49.008;12.106;2023-03-14T03:45:32;8.80;99.90
45906;DHT22;31619;49.008;12.106;2023-03-14T03:47:57;8.80;99.90
45906;DHT22;31619;49.008;12.106;2023-03-14T03:50:23;8.90;99.90
45906;DHT22;31619;49.008;12.106;2023-03-14T03:52:48;8.90;99.90
45906;DHT22;31619;49.008;12.106;2023-03-14T03:55:14;8.90;99.90
45906;DHT22;31619;49.008;12.106;2023-03-14T03:57:40;8.90;99.90
45906;DHT22;31619;49.008;12.106;2023-03-14T04:00:06;8.90;99.90
45906;DHT22;31619;49.008;12.106;2023-03-14T04:02:34;8.80;99.90
45906;DHT22;31619;49.008;12.106;2023-03-14T04:04:59;8.80;99.90
45906;DHT22;31619;49.008;12.106;2023-03-14T04:07:25;8.70;99.90
45906;DHT22;31619;49.008;12.106;2023-03-14T04:09:51;8.60;99.90
45906;DHT22;31619;49.008;12.106;2023-03-14T04:12:16;8.70;99.90
45906;DHT22;31619;49.008;12.106;2023-03-14T04:14:42;8.70;99.90
45906;DHT22;31619;49.008;12.106;2023-03-14T04:17:08;8.60;99.90
45906;DHT22;31619;49.008;12.106;2023-03-14T04:19:33;8.70;99.90
45906;DHT22;31619;49.008;12.106;2023-03-14T04:21:59;8.60;99.90
45906;DHT22;31619;49.008;12.106;2023-03-14T04:24:24;8.70;99.90
45906;DHT22;31619;49.008;12.106;2023-03-14T04:26:50;8.70;99.90
45906;DHT22;31619;49.008;12.106;2023-03-14T04:29:16;8.70;99.90
45906;DHT22;31619;49.008;12.106;2023-03-14T04:31:41;8.80;99.90
45906;DHT22;31619;49.008;12.106;2023-03-14T04:34:07;8.80;99.90
45906;DHT22;31619;49.008;12.106;2023-03-14T04:36:32;8.70;99.90
45906;DHT22;31619;49.008;12.106;2023-03-14T04:38:58;8.70;99.90
45906;DHT22;31619;49.008;12.106;2023-03-14T04:41:24;8.70;99.90
45906;DHT22;31619;49.008;12.106;2023-03-14T04:43:49;8.70;99.90
45906;DHT22;31619;49.008;12.106;2023-03-14T04:46:15;8.70;99.90
45906;DHT22;31619;49.008;12.106;2023-03-14T04:48:41;8.70;99.90
45906;DHT22;31619;49.008;12.106;2023-03-14T04:51:06;8.70;99.90
45906;DHT22;31619;49.008;12.106;2023-03-14T04:53:32;8.70;99.90
45906;DHT22;31619;49.008;12.106;2023-03-14T04:55:59;8.60;99.90
45906;DHT22;31619;49.008;12.106;2023-03-14T04:58:24;8.70;99.90
45906;DHT22;31619;49.008;12.106;2023-03-14T05:00:50;8.70;99.90
45906;DHT22;31619;49.008;12.106;2023-03-14T05:03:17;8.60;99.90
45906;DHT22;31619;49.008;12.106;2023-03-14T05:05:43;8.50;99.90
45906;DHT22;31619;49.008;12.106;2023-03-14T05:08:09;8.50;99.90
45906;DHT22;31619;49.008;12.106;2023-03-14T05:10:35;8.60;99.90
45906;DHT22;31619;49.008;12.106;2023-03-14T05:13:00;8.60;99.90
45906;DHT22;31619;49.008;12.106;2023-03-14T05:15:26;8.70;99.90
45906;DHT22;31619;49.008;12.106;2023-03-14T05:17:52;8.70;99.90
45906;DHT22;31619;49.008;12.106;2023-03-14T05:20:19;8.80;99.90
45906;DHT22;31619;49.008;12.106;2023-03-14T05:22:45;8.70;99.90
45906;DHT22;31619;49.008;12.106;2023-03-14T05:25:10;8.70;99.90
45906;DHT22;31619;49.008;12.106;2023-03-14T05:27:36;8.60;99.90
45906;DHT22;31619;49.008;12.106;2023-03-14T05:30:04;8.60;99.90
45906;DHT22;31619;49.008;12.106;2023-03-14T05:32:30;8.60;99.90
45906;DHT22;31619;49.008;12.106;2023-03-14T05:34:55;8.60;99.90
45906;DHT22;31619;49.008;12.106;2023-03-14T05:37:27;8.60;99.90
45906;DHT22;31619;49.008;12.106;2023-03-14T05:39:53;8.60;99.90
45906;DHT22;31619;49.008;12.106;2023-03-14T05:42:18;8.60;99.90
45906;DHT22;31619;49.008;12.106;2023-03-14T05:44:44;8.70;99.90
45906;DHT22;31619;49.008;12.106;2023-03-14T05:47:10;8.70;99.90
45906;DHT22;31619;49.008;12.106;2023-03-14T05:49:35;8.80;99.90
45906;DHT22;31619;49.008;12.106;2023-03-14T05:52:01;8.80;99.90
45906;DHT22;31619;49.008;12.106;2023-03-14T05:54:26;8.80;99.90
45906;DHT22;31619;49.008;12.106;2023-03-14T05:56:52;8.90;99.90
45906;DHT22;31619;49.008;12.106;2023-03-14T05:59:18;8.80;99.90
45906;DHT22;31619;49.008;12.106;2023-03-14T06:01:43;8.80;99.90
45906;DHT22;31619;49.008;12.106;2023-03-14T06:04:09;8.90;99.90
45906;DHT22;31619;49.008;12.106;2023-03-14T06:06:35;8.90;99.90
45906;DHT22;31619;49.008;12.106;2023-03-14T06:09:00;8.90;99.90
45906;DHT22;31619;49.008;12.106;2023-03-14T06:11:26;8.90;99.90
45906;DHT22;31619;49.008;12.106;2023-03-14T06:13:52;8.90;99.90
45906;DHT22;31619;49.008;12.106;2023-03-14T06:16:17;8.90;99.90
45906;DHT22;31619;49.008;12.106;2023-03-14T06:18:43;8.90;99.90
45906;DHT22;31619;49.008;12.106;2023-03-14T06:21:09;9.00;99.90
45906;DHT22;31619;49.008;12.106;2023-03-14T06:23:34;9.10;99.90
45906;DHT22;31619;49.008;12.106;2023-03-14T06:26:00;9.20;99.90
45906;DHT22;31619;49.008;12.106;2023-03-14T06:28:26;9.30;99.90
45906;DHT22;31619;49.008;12.106;2023-03-14T06:30:52;9.40;99.90
45906;DHT22;31619;49.008;12.106;2023-03-14T06:33:17;9.60;99.90
45906;DHT22;31619;49.008;12.106;2023-03-14T06:35:43;9.70;99.90
45906;DHT22;31619;49.008;12.106;2023-03-14T06:38:09;9.70;99.90
45906;DHT22;31619;49.008;12.106;2023-03-14T06:40:34;9.80;99.90
45906;DHT22;31619;49.008;12.106;2023-03-14T06:43:00;9.80;99.90
45906;DHT22;31619;49.008;12.106;2023-03-14T06:45:25;9.80;99.90
45906;DHT22;31619;49.008;12.106;2023-03-14T06:47:51;9.80;99.90
45906;DHT22;31619;49.008;12.106;2023-03-14T06:50:17;9.70;99.90
45906;DHT22;31619;49.008;12.106;2023-03-14T06:52:43;9.70;99.90
45906;DHT22;31619;49.008;12.106;2023-03-14T06:55:13;9.80;99.90
45906;DHT22;31619;49.008;12.106;2023-03-14T06:57:39;10.00;99.90
45906;DHT22;31619;49.008;12.106;2023-03-14T07:00:05;10.00;99.90
45906;DHT22;31619;49.008;12.106;2023-03-14T07:02:31;10.20;99.90
45906;DHT22;31619;49.008;12.106;2023-03-14T07:04:57;10.20;99.90
45906;DHT22;31619;49.008;12.106;2023-03-14T07:07:22;10.20;99.90
45906;DHT22;31619;49.008;12.106;2023-03-14T07:09:48;10.20;99.90
45906;DHT22;31619;49.008;12.106;2023-03-14T07:12:13;10.30;99.90
45906;DHT22;31619;49.008;12.106;2023-03-14T07:14:39;10.30;99.90
45906;DHT22;31619;49.008;12.106;2023-03-14T07:17:05;10.30;99.90
45906;DHT22;31619;49.008;12.106;2023-03-14T07:19:30;10.20;99.90
45906;DHT22;31619;49.008;12.106;2023-03-14T07:21:56;10.20;99.90
45906;DHT22;31619;49.008;12.106;2023-03-14T07:24:22;10.30;99.90
45906;DHT22;31619;49.008;12.106;2023-03-14T07:26:48;10.40;99.90
45906;DHT22;31619;49.008;12.106;2023-03-14T07:29:13;10.50;99.90
45906;DHT22;31619;49.008;12.106;2023-03-14T07:31:39;10.60;99.90
45906;DHT22;31619;49.008;12.106;2023-03-14T07:34:04;10.70;99.90
45906;DHT22;31619;49.008;12.106;2023-03-14T07:36:30;10.70;99.90
45906;DHT22;31619;49.008;12.106;2023-03-14T07:38:56;10.70;99.90
45906;DHT22;31619;49.008;12.106;2023-03-14T07:41:21;10.80;99.90
45906;DHT22;31619;49.008;12.106;2023-03-14T07:43:48;10.70;99.90
45906;DHT22;31619;49.008;12.106;2023-03-14T07:46:14;10.70;99.90
45906;DHT22;31619;49.008;12.106;2023-03-14T07:48:40;10.70;99.90
45906;DHT22;31619;49.008;12.106;2023-03-14T07:51:06;10.80;99.90
45906;DHT22;31619;49.008;12.106;2023-03-14T07:53:32;10.70;99.90
45906;DHT22;31619;49.008;12.106;2023-03-14T07:55:57;10.70;99.90
45906;DHT22;31619;49.008;12.106;2023-03-14T07:58:23;10.80;99.90
45906;DHT22;31619;49.008;12.106;2023-03-14T08:00:49;10.70;99.90
45906;DHT22;31619;49.008;12.106;2023-03-14T08:03:15;10.70;99.90
45906;DHT22;31619;49.008;12.106;2023-03-14T08:05:42;10.70;99.90
45906;DHT22;31619;49.008;12.106;2023-03-14T08:08:07;10.70;99.90
45906;DHT22;31619;49.008;12.106;2023-03-14T08:10:33;10.70;99.90
45906;DHT22;31619;49.008;12.106;2023-03-14T08:13:00;10.70;99.90
45906;DHT22;31619;49.008;12.106;2023-03-14T08:15:26;10.80;99.90
45906;DHT22;31619;49.008;12.106;2023-03-14T08:17:52;10.80;99.90
45906;DHT22;31619;49.008;12.106;2023-03-14T08:20:20;10.90;99.90
45906;DHT22;31619;49.008;12.106;2023-03-14T08:22:45;11.00;99.90
45906;DHT22;31619;49.008;12.106;2023-03-14T08:25:11;11.10;99.90
45906;DHT22;31619;49.008;12.106;2023-03-14T08:27:37;11.30;99.90
45906;DHT22;31619;49.008;12.106;2023-03-14T08:30:05;11.40;99.90
45906;DHT22;31619;49.008;12.106;2023-03-14T08:32:31;11.70;99.90
45906;DHT22;31619;49.008;12.106;2023-03-14T08:34:57;11.80;99.90
45906;DHT22;31619;49.008;12.106;2023-03-14T08:37:23;12.10;99.90
45906;DHT22;31619;49.008;12.106;2023-03-14T08:39:50;12.20;99.90
45906;DHT22;31619;49.008;12.106;2023-03-14T08:42:17;12.40;99.90
45906;DHT22;31619;49.008;12.106;2023-03-14T08:44:42;12.60;99.90
45906;DHT22;31619;49.008;12.106;2023-03-14T08:47:08;12.60;99.90
45906;DHT22;31619;49.008;12.106;2023-03-14T08:49:33;12.60;99.90
45906;DHT22;31619;49.008;12.106;2023-03-14T08:52:00;12.70;99.90
45906;DHT22;31619;49.008;12.106;2023-03-14T08:54:26;12.90;99.90
45906;DHT22;31619;49.008;12.106;2023-03-14T08:56:52;13.10;99.90
45906;DHT22;31619;49.008;12.106;2023-03-14T08:59:17;13.20;99.90
45906;DHT22;31619;49.008;12.106;2023-03-14T09:01:43;13.10;99.90
45906;DHT22;31619;49.008;12.106;2023-03-14T09:04:09;13.20;99.90
45906;DHT22;31619;49.008;12.106;2023-03-14T09:06:35;13.30;99.90
45906;DHT22;31619;49.008;12.106;2023-03-14T09:09:01;13.50;99.90
45906;DHT22;31619;49.008;12.106;2023-03-14T09:11:27;13.60;99.90
45906;DHT22;31619;49.008;12.106;2023-03-14T09:13:52;13.60;99.90
45906;DHT22;31619;49.008;12.106;2023-03-14T09:16:18;13.60;99.90
45906;DHT22;31619;49.008;12.106;2023-03-14T09:18:43;13.60;99.90
45906;DHT22;31619;49.008;12.106;2023-03-14T09:21:09;13.70;99.90
45906;DHT22;31619;49.008;12.106;2023-03-14T09:23:35;13.80;99.90
45906;DHT22;31619;49.008;12.106;2023-03-14T09:26:00;13.90;99.90
45906;DHT22;31619;49.008;12.106;2023-03-14T09:28:27;14.10;99.90
45906;DHT22;31619;49.008;12.106;2023-03-14T09:30:52;14.10;99.90
45906;DHT22;31619;49.008;12.106;2023-03-14T09:33:18;14.10;99.90
45906;DHT22;31619;49.008;12.106;2023-03-14T09:35:44;14.20;99.90
45906;DHT22;31619;49.008;12.106;2023-03-14T09:38:09;14.20;99.90
45906;DHT22;31619;49.008;12.106;2023-03-14T09:40:36;14.40;99.90
45906;DHT22;31619;49.008;12.106;2023-03-14T09:43:02;14.70;99.90
45906;DHT22;31619;49.008;12.106;2023-03-14T09:45:34;14.90;99.90
45906;DHT22;31619;49.008;12.106;2023-03-14T09:48:03;15.00;99.90
45906;DHT22;31619;49.008;12.106;2023-03-14T09:50:59;15.10;99.90
45906;DHT22;31619;49.008;12.106;2023-03-14T09:53:45;15.30;99.90
45906;DHT22;31619;49.008;12.106;2023-03-14T09:56:17;15.40;99.90
45906;DHT22;31619;49.008;12.106;2023-03-14T09:58:47;15.20;99.90
45906;DHT22;31619;49.008;12.106;2023-03-14T10:01:16;15.00;99.90
45906;DHT22;31619;49.008;12.106;2023-03-14T10:03:45;15.10;99.90
45906;DHT22;31619;49.008;12.106;2023-03-14T10:06:12;15.10;99.90
45906;DHT22;31619;49.008;12.106;2023-03-14T10:08:42;15.30;99.90
45906;DHT22;31619;49.008;12.106;2023-03-14T10:11:18;15.60;99.90
45906;DHT22;31619;49.008;12.106;2023-03-14T10:14:05;16.20;99.90
45906;DHT22;31619;49.008;12.106;2023-03-14T10:16:34;17.10;99.90
45906;DHT22;31619;49.008;12.106;2023-03-14T10:19:15;17.30;99.90
45906;DHT22;31619;49.008;12.106;2023-03-14T10:21:49;17.20;99.90
45906;DHT22;31619;49.008;12.106;2023-03-14T10:26:55;17.70;99.70
45906;DHT22;31619;49.008;12.106;2023-03-14T10:29:23;18.30;99.50
45906;DHT22;31619;49.008;12.106;2023-03-14T10:32:02;19.50;95.20
45906;DHT22;31619;49.008;12.106;2023-03-14T10:34:35;20.70;93.10
45906;DHT22;31619;49.008;12.106;2023-03-14T10:37:17;21.90;87.20
45906;DHT22;31619;49.008;12.106;2023-03-14T10:39:52;22.40;83.60
45906;DHT22;31619;49.008;12.106;2023-03-14T10:42:28;21.90;79.10
45906;DHT22;31619;49.008;12.106;2023-03-14T10:44:58;20.90;82.10
45906;DHT22;31619;49.008;12.106;2023-03-14T10:47:26;20.00;84.70
45906;DHT22;31619;49.008;12.106;2023-03-14T10:49:54;19.50;85.40
45906;DHT22;31619;49.008;12.106;2023-03-14T10:52:27;19.40;85.10
45906;DHT22;31619;49.008;12.106;2023-03-14T10:54:58;19.00;85.30
45906;DHT22;31619;49.008;12.106;2023-03-14T10:57:25;18.40;87.30
45906;DHT22;31619;49.008;12.106;2023-03-14T10:59:51;18.00;88.90
45906;DHT22;31619;49.008;12.106;2023-03-14T11:02:49;18.00;89.20
45906;DHT22;31619;49.008;12.106;2023-03-14T11:05:40;17.90;88.70
45906;DHT22;31619;49.008;12.106;2023-03-14T11:11:06;17.40;90.00
45906;DHT22;31619;49.008;12.106;2023-03-14T11:14:01;17.10;91.00
45906;DHT22;31619;49.008;12.106;2023-03-14T11:16:39;16.70;90.90
45906;DHT22;31619;49.008;12.106;2023-03-14T11:19:25;16.20;91.90
45906;DHT22;31619;49.008;12.106;2023-03-14T11:22:14;15.70;92.50
45906;DHT22;31619;49.008;12.106;2023-03-14T11:25:18;15.10;94.00
45906;DHT22;31619;49.008;12.106;2023-03-14T11:30:19;14.10;97.00
45906;DHT22;31619;49.008;12.106;2023-03-14T11:32:57;14.00;96.70
45906;DHT22;31619;49.008;12.106;2023-03-14T11:35:34;13.80;97.70
45906;DHT22;31619;49.008;12.106;2023-03-14T11:40:39;13.80;98.20
45906;DHT22;31619;49.008;12.106;2023-03-14T11:43:14;14.00;98.50
45906;DHT22;31619;49.008;12.106;2023-03-14T11:45:42;14.20;98.10
45906;DHT22;31619;49.008;12.106;2023-03-14T11:50:57;14.80;97.30
45906;DHT22;31619;49.008;12.106;2023-03-14T11:53:48;15.20;96.70
45906;DHT22;31619;49.008;12.106;2023-03-14T11:56:28;15.90;95.90
45906;DHT22;31619;49.008;12.106;2023-03-14T11:58:58;16.30;94.80
45906;DHT22;31619;49.008;12.106;2023-03-14T12:01:33;16.60;94.30
45906;DHT22;31619;49.008;12.106;2023-03-14T12:04:12;16.90;93.30
45906;DHT22;31619;49.008;12.106;2023-03-14T12:06:49;17.50;93.00
45906;DHT22;31619;49.008;12.106;2023-03-14T12:09:17;19.50;90.10
45906;DHT22;31619;49.008;12.106;2023-03-14T12:11:58;21.50;83.80
45906;DHT22;31619;49.008;12.106;2023-03-14T12:14:30;22.70;77.70
45906;DHT22;31619;49.008;12.106;2023-03-14T12:19:31;23.70;68.20
45906;DHT22;31619;49.008;12.106;2023-03-14T12:22:20;22.10;69.60
45906;DHT22;31619;49.008;12.106;2023-03-14T12:24:55;20.90;73.30
45906;DHT22;31619;49.008;12.106;2023-03-14T12:30:37;18.40;80.10
45906;DHT22;31619;49.008;12.106;2023-03-14T12:35:40;16.80;86.20
45906;DHT22;31619;49.008;12.106;2023-03-14T12:38:13;16.50;88.10
45906;DHT22;31619;49.008;12.106;2023-03-14T12:43:29;15.60;91.00
45906;DHT22;31619;49.008;12.106;2023-03-14T12:48:33;15.10;92.80
45906;DHT22;31619;49.008;12.106;2023-03-14T12:51:04;15.00;93.70
45906;DHT22;31619;49.008;12.106;2023-03-14T12:56:40;15.00;94.10
45906;DHT22;31619;49.008;12.106;2023-03-14T12:59:20;14.90;99.90
45906;DHT22;31619;49.008;12.106;2023-03-14T13:05:10;13.90;99.90
45906;DHT22;31619;49.008;12.106;2023-03-14T13:13:03;13.00;99.90
45906;DHT22;31619;49.008;12.106;2023-03-14T13:15:41;12.90;99.90
45906;DHT22;31619;49.008;12.106;2023-03-14T13:18:12;12.90;99.90
45906;DHT22;31619;49.008;12.106;2023-03-14T13:20:44;13.00;99.90
45906;DHT22;31619;49.008;12.106;2023-03-14T13:23:26;13.10;99.90
45906;DHT22;31619;49.008;12.106;2023-03-14T13:25:53;13.20;99.90
45906;DHT22;31619;49.008;12.106;2023-03-14T13:28:19;12.80;99.90
45906;DHT22;31619;49.008;12.106;2023-03-14T13:30:47;12.30;99.90
45906;DHT22;31619;49.008;12.106;2023-03-14T13:33:15;12.00;99.90
45906;DHT22;31619;49.008;12.106;2023-03-14T13:35:47;11.80;99.90
45906;DHT22;31619;49.008;12.106;2023-03-14T13:38:20;11.80;99.90
45906;DHT22;31619;49.008;12.106;2023-03-14T13:40:47;11.90;99.90
45906;DHT22;31619;49.008;12.106;2023-03-14T13:43:17;12.00;99.90
45906;DHT22;31619;49.008;12.106;2023-03-14T13:48:31;13.70;99.90
45906;DHT22;31619;49.008;12.106;2023-03-14T13:51:05;13.90;99.90
45906;DHT22;31619;49.008;12.106;2023-03-14T13:53:32;14.00;99.90
45906;DHT22;31619;49.008;12.106;2023-03-14T13:56:09;14.00;99.90
45906;DHT22;31619;49.008;12.106;2023-03-14T13:58:37;14.20;99.90
45906;DHT22;31619;49.008;12.106;2023-03-14T14:01:06;14.10;99.90
45906;DHT22;31619;49.008;12.106;2023-03-14T14:03:39;14.00;99.90
45906;DHT22;31619;49.008;12.106;2023-03-14T14:06:10;13.50;99.90
45906;DHT22;31619;49.008;12.106;2023-03-14T14:08:40;12.80;99.90
45906;DHT22;31619;49.008;12.106;2023-03-14T14:11:06;12.10;99.90
45906;DHT22;31619;49.008;12.106;2023-03-14T14:13:34;11.40;99.90
45906;DHT22;31619;49.008;12.106;2023-03-14T14:16:01;10.90;99.90
45906;DHT22;31619;49.008;12.106;2023-03-14T14:18:30;10.40;99.90
45906;DHT22;31619;49.008;12.106;2023-03-14T14:20:57;10.00;99.90
45906;DHT22;31619;49.008;12.106;2023-03-14T14:23:25;9.80;99.90
45906;DHT22;31619;49.008;12.106;2023-03-14T14:25:56;9.70;99.90
45906;DHT22;31619;49.008;12.106;2023-03-14T14:28:34;9.70;99.90
45906;DHT22;31619;49.008;12.106;2023-03-14T14:31:19;9.50;99.90
45906;DHT22;31619;49.008;12.106;2023-03-14T14:34:00;9.50;99.90
45906;DHT22;31619;49.008;12.106;2023-03-14T14:36:27;9.50;99.90
45906;DHT22;31619;49.008;12.106;2023-03-14T14:39:04;9.60;99.90
45906;DHT22;31619;49.008;12.106;2023-03-14T14:41:33;9.70;99.90
45906;DHT22;31619;49.008;12.106;2023-03-14T14:44:00;9.80;99.90
45906;DHT22;31619;49.008;12.106;2023-03-14T14:46:28;9.90;99.90
45906;DHT22;31619;49.008;12.106;2023-03-14T14:49:12;10.10;99.90
45906;DHT22;31619;49.008;12.106;2023-03-14T14:51:42;10.00;99.90
45906;DHT22;31619;49.008;12.106;2023-03-14T14:54:14;10.00;99.90
45906;DHT22;31619;49.008;12.106;2023-03-14T14:56:44;10.00;99.90
45906;DHT22;31619;49.008;12.106;2023-03-14T14:59:20;9.80;99.90
45906;DHT22;31619;49.008;12.106;2023-03-14T15:01:46;9.70;99.90
45906;DHT22;31619;49.008;12.106;2023-03-14T15:04:14;9.70;99.90
45906;DHT22;31619;49.008;12.106;2023-03-14T15:06:43;9.60;99.90
45906;DHT22;31619;49.008;12.106;2023-03-14T15:09:10;9.60;99.90
45906;DHT22;31619;49.008;12.106;2023-03-14T15:11:37;9.70;99.90
45906;DHT22;31619;49.008;12.106;2023-03-14T15:14:03;9.60;99.90
45906;DHT22;31619;49.008;12.106;2023-03-14T15:16:30;9.50;99.90
45906;DHT22;31619;49.008;12.106;2023-03-14T15:18:58;9.50;99.90
45906;DHT22;31619;49.008;12.106;2023-03-14T15:21:26;9.60;99.90
45906;DHT22;31619;49.008;12.106;2023-03-14T15:23:52;9.60;99.90
45906;DHT22;31619;49.008;12.106;2023-03-14T15:26:20;9.50;99.90
45906;DHT22;31619;49.008;12.106;2023-03-14T15:28:47;9.40;99.90
45906;DHT22;31619;49.008;12.106;2023-03-14T15:31:14;9.40;99.90
45906;DHT22;31619;49.008;12.106;2023-03-14T15:33:40;9.40;99.90
45906;DHT22;31619;49.008;12.106;2023-03-14T15:36:15;9.30;99.90
45906;DHT22;31619;49.008;12.106;2023-03-14T15:38:42;9.20;99.90
45906;DHT22;31619;49.008;12.106;2023-03-14T15:41:09;9.00;99.90
45906;DHT22;31619;49.008;12.106;2023-03-14T15:43:34;8.90;99.90
45906;DHT22;31619;49.008;12.106;2023-03-14T15:46:00;8.80;99.90
45906;DHT22;31619;49.008;12.106;2023-03-14T15:48:26;8.70;99.90
45906;DHT22;31619;49.008;12.106;2023-03-14T15:50:51;8.50;99.90
45906;DHT22;31619;49.008;12.106;2023-03-14T15:53:17;8.30;99.90
45906;DHT22;31619;49.008;12.106;2023-03-14T15:55:42;8.20;99.90
45906;DHT22;31619;49.008;12.106;2023-03-14T15:58:17;8.30;99.90
45906;DHT22;31619;49.008;12.106;2023-03-14T16:00:43;8.40;99.90
45906;DHT22;31619;49.008;12.106;2023-03-14T16:03:09;8.60;99.90
45906;DHT22;31619;49.008;12.106;2023-03-14T16:05:36;8.90;99.90
45906;DHT22;31619;49.008;12.106;2023-03-14T16:08:01;9.30;99.90
45906;DHT22;31619;49.008;12.106;2023-03-14T16:10:28;9.50;99.90
45906;DHT22;31619;49.008;12.106;2023-03-14T16:12:54;9.60;99.90
45906;DHT22;31619;49.008;12.106;2023-03-14T16:15:20;9.50;99.90
45906;DHT22;31619;49.008;12.106;2023-03-14T16:17:45;9.30;99.90